Time;durP1;ratioP1;P1;durP2;ratioP2;P2;SDS_P1;SDS_P2;PMS_P1;PMS_P2;Temp;Humidity;BMP_temperature;BMP_pressure;BME280_temperature;BME280_humidity;BME280_pressure;Samples;Min_cycle;Max_cycle;Signal;HPM_P1;HPM_P2
2021/12/21 00:00:59;;;;;;;;;;;-3276.00;87.70;;;;;;5038306;28;19956;-83
2021/12/21 00:03:24;;;;;;;;;;;-3276.00;87.30;;;;;;5013208;28;19913;-83
2021/12/21 00:05:50;;;;;;;;;;;-3275.90;87.30;;;;;;5029037;28;20068;-84
2021/12/21 00:08:17;;;;;;;;;;;-3275.90;87.50;;;;;;5015451;28;19928;-83
2021/12/21 00:10:45;;;;;;;;;;;-3275.90;87.70;;;;;;5015329;28;19909;-83
2021/12/21 00:13:24;;;;;;;;;;;-3275.80;87.60;;;;;;5013451;28;19967;-82
2021/12/21 00:16:00;;;;;;;;;;;-3276.10;87.90;;;;;;5029244;28;19928;-84
2021/12/21 00:18:36;;;;;;;;;;;-3276.00;87.60;;;;;;5010885;28;19913;-84
2021/12/21 00:23:31;;;;;;;;;;;-3276.30;87.30;;;;;;5032913;28;19913;-83
2021/12/21 00:25:58;;;;;;;;;;;-3276.40;87.00;;;;;;5017926;28;19919;-82
2021/12/21 00:28:24;;;;;;;;;;;-3276.40;86.80;;;;;;5018543;28;20034;-83
2021/12/21 00:30:50;;;;;;;;;;;-3276.10;86.50;;;;;;5028313;28;20062;-82
2021/12/21 00:33:17;;;;;;;;;;;-3276.10;87.00;;;;;;5035836;28;19901;-82
2021/12/21 00:35:42;;;;;;;;;;;-3276.00;87.00;;;;;;5022394;28;19917;-83
2021/12/21 00:38:08;;;;;;;;;;;-3275.90;87.40;;;;;;5018151;28;19913;-83
2021/12/21 00:40:33;;;;;;;;;;;-3275.70;87.50;;;;;;5032773;28;19924;-82
2021/12/21 00:42:58;;;;;;;;;;;-3275.60;87.90;;;;;;5023037;28;19913;-84
2021/12/21 00:45:24;;;;;;;;;;;-3275.50;88.10;;;;;;5019325;28;19921;-83
2021/12/21 00:47:50;;;;;;;;;;;-3275.40;88.50;;;;;;5034202;28;19917;-82
2021/12/21 00:50:17;;;;;;;;;;;-3275.40;88.80;;;;;;5041225;28;19921;-82
2021/12/21 00:52:46;;;;;;;;;;;-3275.30;88.90;;;;;;5048914;28;19917;-83
2021/12/21 00:55:12;;;;;;;;;;;-3275.20;89.20;;;;;;5023432;28;19933;-83
2021/12/21 00:57:38;;;;;;;;;;;-3275.20;89.30;;;;;;5028682;28;19940;-81
2021/12/21 01:00:06;;;;;;;;;;;-3275.40;89.30;;;;;;5032513;28;19927;-83
2021/12/21 01:02:32;;;;;;;;;;;-3275.40;89.30;;;;;;5015583;28;20280;-83
2021/12/21 01:04:58;;;;;;;;;;;-3275.30;89.40;;;;;;5041015;28;19968;-83
2021/12/21 01:07:32;;;;;;;;;;;-3275.20;89.40;;;;;;5034987;28;20482;-83
2021/12/21 01:10:29;;;;;;;;;;;-3275.20;89.60;;;;;;5020384;28;19913;-83
2021/12/21 01:12:53;;;;;;;;;;;-3275.20;89.80;;;;;;5040341;28;19979;-81
2021/12/21 01:15:39;;;;;;;;;;;-3275.20;89.90;;;;;;5014957;28;19916;-83
2021/12/21 01:18:12;;;;;;;;;;;-3275.40;89.80;;;;;;5030926;28;19924;-83
2021/12/21 01:20:43;;;;;;;;;;;-3275.70;89.80;;;;;;5014396;28;19917;-83
2021/12/21 01:26:07;;;;;;;;;;;-3275.50;89.00;;;;;;5029059;28;19943;-83
2021/12/21 01:31:29;;;;;;;;;;;-3275.60;88.80;;;;;;5029300;28;19917;-83
2021/12/21 01:34:21;;;;;;;;;;;-3275.70;89.10;;;;;;5028529;28;19917;-82
2021/12/21 01:37:00;;;;;;;;;;;-3275.60;88.60;;;;;;5006927;28;19913;-82
2021/12/21 01:49:55;;;;;;;;;;;-3275.30;89.40;;;;;;5029143;28;19920;-83
2021/12/21 01:52:21;;;;;;;;;;;-3275.20;89.50;;;;;;5029742;28;19921;-82
2021/12/21 01:54:47;;;;;;;;;;;-3275.30;89.70;;;;;;5023317;28;19937;-83
2021/12/21 01:57:13;;;;;;;;;;;-3275.30;89.50;;;;;;5031548;28;19975;-81
2021/12/21 01:59:39;;;;;;;;;;;-3275.30;89.60;;;;;;5030179;28;20011;-83
2021/12/21 02:02:06;;;;;;;;;;;-3275.60;89.80;;;;;;5011731;28;19917;-82
2021/12/21 02:04:32;;;;;;;;;;;-3275.80;89.50;;;;;;5011321;28;19917;-83
2021/12/21 02:06:57;;;;;;;;;;;-3275.60;88.90;;;;;;5012904;28;19971;-83
2021/12/21 02:09:29;;;;;;;;;;;-3275.60;89.10;;;;;;5018821;28;19917;-81
2021/12/21 02:11:55;;;;;;;;;;;-3275.60;88.80;;;;;;5031504;28;19913;-81
2021/12/21 02:14:20;;;;;;;;;;;-3275.50;88.70;;;;;;5029688;28;20397;-83
2021/12/21 02:20:08;;;;;;;;;;;-3275.40;89.00;;;;;;4988835;28;19924;-83
2021/12/21 02:22:38;;;;;;;;;;;-3275.50;89.10;;;;;;4989919;28;20376;-83
2021/12/21 02:25:33;;;;;;;;;;;-3275.40;88.90;;;;;;4997824;28;19925;-83
2021/12/21 02:27:59;;;;;;;;;;;-3275.50;89.20;;;;;;5026964;28;20000;-83
2021/12/21 02:30:26;;;;;;;;;;;-3275.70;88.80;;;;;;5005498;28;20016;-82
2021/12/21 02:32:51;;;;;;;;;;;-3275.60;88.60;;;;;;5013631;28;19921;-82
2021/12/21 02:35:18;;;;;;;;;;;-3275.60;88.80;;;;;;5032349;28;19916;-83
2021/12/21 02:37:43;;;;;;;;;;;-3275.60;88.70;;;;;;5046231;28;19913;-83
2021/12/21 02:40:09;;;;;;;;;;;-3275.80;88.60;;;;;;5019032;28;19927;-81
2021/12/21 02:42:35;;;;;;;;;;;-3275.90;88.30;;;;;;5018100;28;19943;-83
2021/12/21 02:45:00;;;;;;;;;;;-3275.80;88.00;;;;;;5017731;28;20379;-83
2021/12/21 02:47:26;;;;;;;;;;;-3275.80;88.10;;;;;;5017793;28;19932;-83
2021/12/21 02:49:51;;;;;;;;;;;-3275.90;88.20;;;;;;5040935;28;19936;-81
2021/12/21 02:52:16;;;;;;;;;;;-3276.00;87.90;;;;;;5040593;28;19931;-82
2021/12/21 02:54:42;;;;;;;;;;;-3276.10;87.60;;;;;;5032721;28;19937;-83
2021/12/21 02:57:07;;;;;;;;;;;-3276.20;87.60;;;;;;5017653;28;20008;-82
2021/12/21 02:59:33;;;;;;;;;;;-3276.20;87.40;;;;;;5039454;28;19921;-82
2021/12/21 03:01:59;;;;;;;;;;;-3275.90;87.20;;;;;;5038533;28;19952;-83
2021/12/21 03:04:25;;;;;;;;;;;-3275.70;87.60;;;;;;5018945;28;20398;-83
2021/12/21 03:09:42;;;;;;;;;;;-3275.70;87.70;;;;;;5033296;28;20300;-83
2021/12/21 03:14:48;;;;;;;;;;;-3275.50;88.10;;;;;;5039937;28;19917;-83
2021/12/21 03:17:14;;;;;;;;;;;-3275.40;88.50;;;;;;5019945;28;19920;-82
2021/12/21 03:19:39;;;;;;;;;;;-3275.50;89.00;;;;;;5034916;28;19917;-83
2021/12/21 03:22:05;;;;;;;;;;;-3275.50;89.00;;;;;;5015989;28;19917;-82
2021/12/21 03:24:31;;;;;;;;;;;-3275.50;88.70;;;;;;5017187;28;19925;-82
2021/12/21 03:26:57;;;;;;;;;;;-3275.20;88.90;;;;;;5035538;28;19967;-83
2021/12/21 03:29:22;;;;;;;;;;;-3275.20;89.20;;;;;;5017253;28;20442;-83
2021/12/21 03:31:48;;;;;;;;;;;-3275.10;89.50;;;;;;5044051;28;20000;-83
2021/12/21 03:34:13;;;;;;;;;;;-3275.00;89.70;;;;;;5015734;28;19925;-82
2021/12/21 03:36:40;;;;;;;;;;;-3275.00;89.80;;;;;;5017924;28;19913;-83
2021/12/21 03:39:08;;;;;;;;;;;-3275.00;90.00;;;;;;5016532;28;19924;-83
2021/12/21 03:41:36;;;;;;;;;;;-3275.10;90.10;;;;;;5015746;28;19924;-82
2021/12/21 03:44:03;;;;;;;;;;;-3275.00;90.10;;;;;;5016818;28;19975;-82
2021/12/21 03:46:29;;;;;;;;;;;-3275.00;90.20;;;;;;5035311;28;19913;-82
2021/12/21 03:48:54;;;;;;;;;;;-3275.00;90.30;;;;;;5013331;28;19924;-83
2021/12/21 03:51:20;;;;;;;;;;;-3275.00;90.40;;;;;;5016252;28;19913;-83
2021/12/21 03:53:46;;;;;;;;;;;-3275.00;90.50;;;;;;5033962;28;20367;-84
2021/12/21 03:58:53;;;;;;;;;;;-3275.30;90.60;;;;;;5031300;28;20006;-83
2021/12/21 04:01:18;;;;;;;;;;;-3275.20;90.20;;;;;;5014744;28;19921;-82
2021/12/21 04:03:44;;;;;;;;;;;-3275.10;90.10;;;;;;5032429;28;19921;-81
2021/12/21 04:06:10;;;;;;;;;;;-3275.10;90.20;;;;;;5032816;28;19913;-83
2021/12/21 04:08:35;;;;;;;;;;;-3275.20;90.40;;;;;;5024904;28;19924;-82
2021/12/21 04:11:01;;;;;;;;;;;-3275.50;90.20;;;;;;5033164;28;19976;-83
2021/12/21 04:13:27;;;;;;;;;;;-3275.50;89.80;;;;;;5034192;28;19945;-84
2021/12/21 04:15:53;;;;;;;;;;;-3275.70;89.80;;;;;;5016220;28;20421;-82
2021/12/21 04:18:22;;;;;;;;;;;-3275.70;89.40;;;;;;5019087;28;19936;-83
2021/12/21 04:20:48;;;;;;;;;;;-3275.50;89.20;;;;;;5036607;28;19909;-83
2021/12/21 04:23:13;;;;;;;;;;;-3275.60;89.30;;;;;;5017661;28;19920;-83
2021/12/21 04:25:39;;;;;;;;;;;-3275.50;88.80;;;;;;5017395;28;20608;-82
2021/12/21 04:28:04;;;;;;;;;;;-3275.40;88.90;;;;;;5037489;28;20351;-83
2021/12/21 04:30:30;;;;;;;;;;;-3275.50;89.10;;;;;;5029968;28;19913;-83
2021/12/21 04:32:55;;;;;;;;;;;-3275.50;88.90;;;;;;5032965;28;19921;-83
2021/12/21 04:35:21;;;;;;;;;;;-3275.40;88.90;;;;;;5019986;28;19923;-82
2021/12/21 04:37:51;;;;;;;;;;;-3275.30;89.00;;;;;;5034775;28;19992;-83
2021/12/21 04:40:20;;;;;;;;;;;-3275.20;89.20;;;;;;5029926;28;19913;-84
2021/12/21 04:42:45;;;;;;;;;;;-3275.20;89.50;;;;;;5012712;28;19924;-82
2021/12/21 04:45:11;;;;;;;;;;;-3275.20;89.70;;;;;;5019827;28;19921;-83
2021/12/21 04:47:36;;;;;;;;;;;-3275.20;89.60;;;;;;5013951;28;19913;-82
2021/12/21 04:50:02;;;;;;;;;;;-3275.10;89.60;;;;;;5031154;28;19917;-82
2021/12/21 04:52:27;;;;;;;;;;;-3275.00;89.70;;;;;;5025001;28;19967;-82
2021/12/21 04:54:59;;;;;;;;;;;-3275.10;89.80;;;;;;5025715;28;20361;-82
2021/12/21 04:57:24;;;;;;;;;;;-3275.10;90.00;;;;;;5013963;28;19940;-82
2021/12/21 04:59:50;;;;;;;;;;;-3275.40;90.00;;;;;;5012752;28;19921;-83
2021/12/21 05:02:16;;;;;;;;;;;-3275.50;89.70;;;;;;5014263;28;19921;-82
2021/12/21 05:04:41;;;;;;;;;;;-3275.40;89.00;;;;;;5037607;28;20442;-83
2021/12/21 05:07:07;;;;;;;;;;;-3275.60;89.00;;;;;;5030491;28;19964;-83
2021/12/21 05:09:41;;;;;;;;;;;-3275.70;88.40;;;;;;5016126;28;19913;-82
2021/12/21 05:12:08;;;;;;;;;;;-3275.70;88.10;;;;;;5020513;28;19920;-83
2021/12/21 05:14:33;;;;;;;;;;;-3275.50;88.10;;;;;;5044538;28;19909;-83
2021/12/21 05:16:59;;;;;;;;;;;-3275.60;88.40;;;;;;5024651;28;19969;-85
2021/12/21 05:19:24;;;;;;;;;;;-3275.70;88.20;;;;;;5024985;28;19925;-84
2021/12/21 05:21:50;;;;;;;;;;;-3275.60;88.10;;;;;;5038022;28;19913;-81
2021/12/21 05:24:15;;;;;;;;;;;-3275.80;88.20;;;;;;5032755;28;19925;-84
2021/12/21 05:26:41;;;;;;;;;;;-3275.50;87.90;;;;;;5035431;28;19935;-84
2021/12/21 05:29:06;;;;;;;;;;;-3275.50;88.20;;;;;;5030759;28;19954;-83
2021/12/21 05:31:32;;;;;;;;;;;-3275.50;88.30;;;;;;5029594;28;19910;-83
2021/12/21 05:33:57;;;;;;;;;;;-3275.30;88.20;;;;;;5041167;28;19947;-84
2021/12/21 05:36:23;;;;;;;;;;;-3275.30;88.60;;;;;;5012179;28;19909;-83
2021/12/21 05:38:52;;;;;;;;;;;-3275.30;88.70;;;;;;5031139;28;20331;-84
2021/12/21 05:41:28;;;;;;;;;;;-3275.20;88.70;;;;;;5013964;28;20232;-83
2021/12/21 05:43:53;;;;;;;;;;;-3275.00;88.60;;;;;;5009894;28;19987;-83
2021/12/21 05:46:19;;;;;;;;;;;-3275.00;88.90;;;;;;5029923;28;19909;-83
2021/12/21 05:48:45;;;;;;;;;;;-3275.20;89.10;;;;;;5029091;28;19967;-82
2021/12/21 05:51:10;;;;;;;;;;;-3275.20;88.80;;;;;;5014307;28;19913;-83
2021/12/21 05:53:35;;;;;;;;;;;-3275.20;88.60;;;;;;5014013;28;19919;-81
2021/12/21 05:56:01;;;;;;;;;;;-3275.40;88.90;;;;;;5032511;28;19916;-83
2021/12/21 05:58:26;;;;;;;;;;;-3275.20;88.40;;;;;;5020984;28;19908;-81
2021/12/21 06:00:52;;;;;;;;;;;-3275.20;88.50;;;;;;5023464;28;19913;-81
2021/12/21 06:03:17;;;;;;;;;;;-3275.20;88.60;;;;;;5030118;28;19920;-83
2021/12/21 06:05:43;;;;;;;;;;;-3275.20;88.40;;;;;;5016089;28;19924;-82
2021/12/21 06:08:09;;;;;;;;;;;-3275.10;88.40;;;;;;5036971;28;19912;-81
2021/12/21 06:10:39;;;;;;;;;;;-3275.00;88.30;;;;;;5058925;28;19955;-82
2021/12/21 06:26:14;;;;;;;;;;;-3274.90;88.60;;;;;;5060441;28;20453;-80
2021/12/21 06:28:40;;;;;;;;;;;-3274.70;88.80;;;;;;5058859;28;20335;-81
2021/12/21 06:31:06;;;;;;;;;;;-3274.80;89.30;;;;;;5031634;28;19945;-82
2021/12/21 06:33:31;;;;;;;;;;;-3274.80;89.50;;;;;;5030754;28;19921;-81
2021/12/21 06:35:57;;;;;;;;;;;-3275.10;89.60;;;;;;5022197;28;19920;-82
2021/12/21 06:38:23;;;;;;;;;;;-3275.10;89.30;;;;;;5013438;28;19917;-83
2021/12/21 06:40:48;;;;;;;;;;;-3275.30;89.10;;;;;;5013635;28;19916;-82
2021/12/21 06:43:15;;;;;;;;;;;-3275.20;88.60;;;;;;5013529;28;19957;-81
2021/12/21 06:45:49;;;;;;;;;;;-3275.30;88.30;;;;;;5013453;28;19923;-82
2021/12/21 06:53:36;;;;;;;;;;;-3275.00;88.60;;;;;;5031000;28;20299;-82
2021/12/21 06:56:02;;;;;;;;;;;-3275.20;88.80;;;;;;5029294;28;19952;-82
2021/12/21 06:58:27;;;;;;;;;;;-3275.50;88.80;;;;;;5031048;28;19913;-82
2021/12/21 07:00:53;;;;;;;;;;;-3275.60;88.50;;;;;;5030236;28;19920;-82
2021/12/21 07:03:18;;;;;;;;;;;-3275.40;87.90;;;;;;5011919;28;19917;-82
2021/12/21 07:05:45;;;;;;;;;;;-3275.30;87.70;;;;;;5013066;28;19924;-81
2021/12/21 07:08:15;;;;;;;;;;;-3275.10;88.00;;;;;;5017179;28;19909;-82
2021/12/21 07:10:41;;;;;;;;;;;-3275.00;88.30;;;;;;5025600;28;19972;-81
2021/12/21 07:18:35;;;;;;;;;;;-3275.00;88.90;;;;;;5029813;28;19924;-80
2021/12/21 07:21:01;;;;;;;;;;;-3275.00;88.50;;;;;;5032645;28;19921;-81
2021/12/21 07:23:27;;;;;;;;;;;-3275.00;88.50;;;;;;5018564;28;19935;-80
2021/12/21 07:25:53;;;;;;;;;;;-3274.90;88.40;;;;;;5054978;28;20004;-81
2021/12/21 07:28:19;;;;;;;;;;;-3274.80;88.50;;;;;;5053667;28;20038;-80
2021/12/21 07:30:47;;;;;;;;;;;-3274.70;88.70;;;;;;5011938;28;19943;-81
2021/12/21 07:33:13;;;;;;;;;;;-3274.80;89.00;;;;;;5017035;28;19940;-80
2021/12/21 07:35:38;;;;;;;;;;;-3274.90;89.10;;;;;;5032390;28;19925;-79
2021/12/21 07:38:04;;;;;;;;;;;-3274.90;88.70;;;;;;5027319;28;19937;-80
2021/12/21 07:40:29;;;;;;;;;;;-3274.80;88.50;;;;;;5014199;28;19967;-80
2021/12/21 07:42:55;;;;;;;;;;;-3274.80;88.80;;;;;;5044928;28;19905;-80
2021/12/21 07:45:20;;;;;;;;;;;-3274.80;88.90;;;;;;5040668;28;20317;-81
2021/12/21 07:47:46;;;;;;;;;;;-3274.90;88.90;;;;;;5040970;28;19909;-81
2021/12/21 07:50:12;;;;;;;;;;;-3275.10;88.80;;;;;;5042634;28;19916;-80
2021/12/21 07:52:37;;;;;;;;;;;-3275.40;88.50;;;;;;5015427;28;19910;-83
2021/12/21 07:55:04;;;;;;;;;;;-3275.20;88.30;;;;;;5015917;28;20470;-81
2021/12/21 07:57:31;;;;;;;;;;;-3275.10;88.20;;;;;;5034724;28;19916;-82
2021/12/21 07:59:57;;;;;;;;;;;-3275.10;88.40;;;;;;5031847;28;19909;-82
2021/12/21 08:02:25;;;;;;;;;;;-3275.20;88.20;;;;;;5045301;28;19912;-82
2021/12/21 08:04:52;;;;;;;;;;;-3275.20;88.00;;;;;;5042926;28;19925;-82
2021/12/21 08:07:22;;;;;;;;;;;-3275.40;87.60;;;;;;5015697;28;19909;-82
2021/12/21 08:09:51;;;;;;;;;;;-3275.40;87.50;;;;;;5014846;28;19917;-82
2021/12/21 08:12:17;;;;;;;;;;;-3275.30;87.40;;;;;;5015125;28;19913;-83
2021/12/21 08:14:43;;;;;;;;;;;-3275.10;87.50;;;;;;5037384;28;19921;-82
2021/12/21 08:17:09;;;;;;;;;;;-3274.90;87.80;;;;;;5053000;28;19913;-84
2021/12/21 08:19:35;;;;;;;;;;;-3275.00;88.10;;;;;;5042528;28;19932;-84
2021/12/21 08:22:00;;;;;;;;;;;-3275.10;88.10;;;;;;5050809;28;20257;-83
2021/12/21 08:24:25;;;;;;;;;;;-3275.10;88.00;;;;;;5035039;28;19964;-82
2021/12/21 08:26:51;;;;;;;;;;;-3274.90;88.10;;;;;;5034472;28;19913;-84
2021/12/21 08:29:16;;;;;;;;;;;-3275.00;88.40;;;;;;5017273;28;19909;-83
2021/12/21 08:31:42;;;;;;;;;;;-3274.90;88.50;;;;;;5035951;28;19913;-83
2021/12/21 08:34:10;;;;;;;;;;;-3275.10;88.90;;;;;;5017556;28;19909;-83
2021/12/21 08:36:35;;;;;;;;;;;-3275.30;88.60;;;;;;5035917;28;20319;-83
2021/12/21 08:39:01;;;;;;;;;;;-3275.20;88.30;;;;;;5017849;28;19917;-83
2021/12/21 08:41:27;;;;;;;;;;;-3275.20;88.40;;;;;;5035813;28;19921;-83
2021/12/21 08:43:53;;;;;;;;;;;-3275.20;88.40;;;;;;5036636;28;20239;-84
2021/12/21 08:46:18;;;;;;;;;;;-3275.40;88.40;;;;;;5050991;28;19909;-83
2021/12/21 08:48:44;;;;;;;;;;;-3275.30;87.90;;;;;;5042280;28;20402;-82
2021/12/21 08:51:09;;;;;;;;;;;-3275.40;87.90;;;;;;5050297;28;19967;-82
2021/12/21 08:53:37;;;;;;;;;;;-3275.30;87.50;;;;;;5032376;28;19920;-82
2021/12/21 08:56:02;;;;;;;;;;;-3275.20;87.60;;;;;;5015503;28;20280;-82
2021/12/21 08:58:28;;;;;;;;;;;-3275.60;87.90;;;;;;5030000;28;19920;-82
2021/12/21 09:00:54;;;;;;;;;;;-3275.70;87.30;;;;;;5013746;28;20213;-82
2021/12/21 09:03:20;;;;;;;;;;;-3275.80;87.00;;;;;;5015089;28;19976;-82
2021/12/21 09:05:46;;;;;;;;;;;-3275.90;86.80;;;;;;5030065;28;19916;-83
2021/12/21 09:08:11;;;;;;;;;;;-3276.00;86.40;;;;;;5047401;28;20017;-83
2021/12/21 09:10:39;;;;;;;;;;;-3275.90;86.30;;;;;;5019319;28;19909;-82
2021/12/21 09:13:05;;;;;;;;;;;-3276.00;85.80;;;;;;5044526;28;20388;-83
2021/12/21 09:15:31;;;;;;;;;;;-3275.90;85.70;;;;;;5033802;28;20054;-83
2021/12/21 09:17:57;;;;;;;;;;;-3276.00;86.10;;;;;;5033822;28;20002;-84
2021/12/21 09:20:24;;;;;;;;;;;-3275.90;86.20;;;;;;5015354;28;19932;-84
2021/12/21 09:22:50;;;;;;;;;;;-3276.00;86.40;;;;;;5033906;28;19956;-82
2021/12/21 09:25:16;;;;;;;;;;;-3276.00;86.40;;;;;;5016609;28;19913;-83
2021/12/21 09:27:41;;;;;;;;;;;-3276.10;86.20;;;;;;5026515;28;19972;-83
2021/12/21 09:30:08;;;;;;;;;;;-3276.00;86.20;;;;;;5039780;28;19931;-82
2021/12/21 09:32:34;;;;;;;;;;;-3276.00;86.40;;;;;;5053508;28;19993;-83
2021/12/21 09:34:59;;;;;;;;;;;-3275.90;86.30;;;;;;5047395;28;20357;-83
2021/12/21 09:37:26;;;;;;;;;;;-3275.90;86.70;;;;;;5017777;28;19910;-83
2021/12/21 09:39:52;;;;;;;;;;;-3275.70;87.00;;;;;;5046003;28;19984;-85
2021/12/21 09:42:20;;;;;;;;;;;-3275.70;87.40;;;;;;5028631;28;19910;-84
2021/12/21 09:44:46;;;;;;;;;;;-3275.70;87.50;;;;;;5034307;28;19913;-84
2021/12/21 09:47:12;;;;;;;;;;;-3275.70;87.80;;;;;;5014924;28;19971;-84
2021/12/21 09:49:37;;;;;;;;;;;-3275.70;87.80;;;;;;5032829;28;19913;-83
2021/12/21 09:52:04;;;;;;;;;;;-3275.80;88.10;;;;;;5034816;28;19991;-84
2021/12/21 09:54:31;;;;;;;;;;;-3275.90;88.20;;;;;;5034093;28;20277;-84
2021/12/21 09:56:56;;;;;;;;;;;-3275.90;87.90;;;;;;5046568;28;19920;-84
2021/12/21 09:59:22;;;;;;;;;;;-3275.80;87.90;;;;;;5033510;28;19913;-84
2021/12/21 10:01:47;;;;;;;;;;;-3275.80;88.10;;;;;;5017261;28;19921;-84
2021/12/21 10:04:13;;;;;;;;;;;-3276.00;88.40;;;;;;5017847;28;19932;-84
2021/12/21 10:06:49;;;;;;;;;;;-3276.20;88.10;;;;;;5030195;28;21267;-84
2021/12/21 10:09:21;;;;;;;;;;;-3276.20;88.00;;;;;;5016355;28;19936;-83
2021/12/21 10:11:48;;;;;;;;;;;-3276.10;88.00;;;;;;5007557;28;19917;-84
2021/12/21 10:14:15;;;;;;;;;;;-3276.00;88.50;;;;;;5009741;28;20206;-84
2021/12/21 10:16:41;;;;;;;;;;;-3276.10;88.70;;;;;;5028730;28;19909;-81
2021/12/21 10:19:07;;;;;;;;;;;-3276.10;88.90;;;;;;5031390;28;19935;-81
2021/12/21 10:21:43;;;;;;;;;;;-3276.10;88.80;;;;;;5031643;28;19910;-80
2021/12/21 10:24:08;;;;;;;;;;;-3276.20;88.80;;;;;;5030053;28;20514;-82
2021/12/21 10:26:34;;;;;;;;;;;-3276.20;88.70;;;;;;5029717;28;19971;-81
2021/12/21 10:29:02;;;;;;;;;;;-3276.20;88.80;;;;;;5029995;28;19980;-81
2021/12/21 10:31:29;;;;;;;;;;;-3276.20;88.90;;;;;;5013407;28;19929;-81
2021/12/21 10:33:56;;;;;;;;;;;-3276.20;88.70;;;;;;5012501;28;19924;-82
2021/12/21 10:36:23;;;;;;;;;;;-3276.20;88.80;;;;;;5030985;28;19991;-81
2021/12/21 10:38:53;;;;;;;;;;;-3276.20;88.80;;;;;;5011595;28;19917;-81
2021/12/21 10:41:20;;;;;;;;;;;-3276.20;88.80;;;;;;5030534;28;19909;-81
2021/12/21 10:44:02;;;;;;;;;;;-3276.20;88.80;;;;;;5011785;28;20406;-80
2021/12/21 10:46:29;;;;;;;;;;;-3276.30;89.20;;;;;;5030783;28;19909;-81
2021/12/21 10:49:03;;;;;;;;;;;-3276.40;89.40;;;;;;5029014;28;19913;-81
2021/12/21 10:51:29;;;;;;;;;;;-3276.40;89.50;;;;;;5030483;28;19913;-82
2021/12/21 10:53:54;;;;;;;;;;;-3276.30;89.20;;;;;;5013164;28;19932;-81
2021/12/21 10:56:21;;;;;;;;;;;-3276.30;89.40;;;;;;5013508;28;19910;-81
2021/12/21 10:58:47;;;;;;;;;;;-3276.30;89.20;;;;;;5032954;28;19913;-81
2021/12/21 11:01:14;;;;;;;;;;;-3276.20;89.40;;;;;;5021807;28;19913;-80
2021/12/21 11:03:48;;;;;;;;;;;-3276.30;89.50;;;;;;5040535;28;19975;-80
2021/12/21 11:06:18;;;;;;;;;;;-3276.30;89.40;;;;;;5050464;28;19916;-81
2021/12/21 11:08:45;;;;;;;;;;;-3276.30;89.50;;;;;;5049117;28;19922;-80
2021/12/21 11:11:25;;;;;;;;;;;-3276.30;89.60;;;;;;5039916;28;20330;-81
2021/12/21 11:13:59;;;;;;;;;;;-3276.40;89.70;;;;;;5027771;28;19939;-82
2021/12/21 11:16:33;;;;;;;;;;;-3276.40;89.80;;;;;;5041102;28;19923;-79
2021/12/21 11:18:59;;;;;;;;;;;-3276.50;89.80;;;;;;5030563;28;19916;-79
2021/12/21 11:21:24;;;;;;;;;;;-3276.60;89.60;;;;;;5024518;28;19913;-78
2021/12/21 11:23:50;;;;;;;;;;;0.00;89.30;;;;;;5035301;28;20263;-80
2021/12/21 11:26:15;;;;;;;;;;;0.10;88.90;;;;;;5016851;28;20074;-79
2021/12/21 11:28:42;;;;;;;;;;;0.20;89.10;;;;;;5015526;28;19909;-78
2021/12/21 11:31:08;;;;;;;;;;;0.30;88.70;;;;;;5016722;28;19909;-79
2021/12/21 11:33:40;;;;;;;;;;;0.20;88.30;;;;;;5015996;28;20012;-79
2021/12/21 11:38:50;;;;;;;;;;;0.40;88.50;;;;;;5026729;28;20424;-80
2021/12/21 11:41:16;;;;;;;;;;;0.70;87.50;;;;;;5033832;28;20009;-79
2021/12/21 11:43:47;;;;;;;;;;;0.70;86.90;;;;;;5012817;28;20315;-79
2021/12/21 11:46:14;;;;;;;;;;;0.60;87.10;;;;;;5032551;28;20004;-80
2021/12/21 11:48:52;;;;;;;;;;;0.60;87.30;;;;;;5034396;28;19960;-79
2021/12/21 11:51:23;;;;;;;;;;;0.60;87.50;;;;;;5033536;28;19916;-79
2021/12/21 11:53:48;;;;;;;;;;;0.60;87.00;;;;;;5015687;28;19917;-80
2021/12/21 11:56:18;;;;;;;;;;;0.60;86.80;;;;;;5033940;28;20011;-80
2021/12/21 11:58:44;;;;;;;;;;;0.70;87.40;;;;;;5013299;28;19920;-79
2021/12/21 12:01:12;;;;;;;;;;;0.70;87.20;;;;;;5034349;28;19913;-79
2021/12/21 12:03:39;;;;;;;;;;;0.70;87.00;;;;;;5014356;28;19909;-78
2021/12/21 12:06:08;;;;;;;;;;;0.80;87.10;;;;;;5006828;28;19925;-79
2021/12/21 12:08:43;;;;;;;;;;;0.80;87.20;;;;;;5037792;28;19909;-78
2021/12/21 12:11:19;;;;;;;;;;;1.00;87.00;;;;;;5035949;28;19913;-78
2021/12/21 12:13:45;;;;;;;;;;;1.10;86.70;;;;;;5016483;28;20450;-84
2021/12/21 12:16:11;;;;;;;;;;;1.10;86.50;;;;;;5029256;28;19948;-80
2021/12/21 12:18:40;;;;;;;;;;;1.20;86.40;;;;;;5039249;28;19980;-79
2021/12/21 12:21:11;;;;;;;;;;;1.20;86.10;;;;;;5054844;28;19913;-79
2021/12/21 12:23:44;;;;;;;;;;;1.40;85.60;;;;;;5045884;28;19932;-79
2021/12/21 12:26:19;;;;;;;;;;;1.30;85.40;;;;;;5057973;28;20019;-79
2021/12/21 12:28:44;;;;;;;;;;;1.40;85.70;;;;;;5048425;28;19921;-78
2021/12/21 12:31:10;;;;;;;;;;;1.20;85.70;;;;;;5039677;28;19915;-79
2021/12/21 12:33:36;;;;;;;;;;;1.30;86.10;;;;;;5033406;28;19914;-80
2021/12/21 12:36:03;;;;;;;;;;;1.30;85.70;;;;;;5019488;28;20012;-80
2021/12/21 12:38:29;;;;;;;;;;;1.30;85.80;;;;;;5014043;28;19967;-78
2021/12/21 12:40:55;;;;;;;;;;;1.30;85.80;;;;;;5022985;28;20323;-78
2021/12/21 12:43:22;;;;;;;;;;;1.20;85.50;;;;;;5028722;28;19932;-78
2021/12/21 12:45:51;;;;;;;;;;;1.20;85.20;;;;;;5027582;28;20343;-78
2021/12/21 12:48:20;;;;;;;;;;;1.20;85.40;;;;;;5030923;28;20276;-78
2021/12/21 12:50:46;;;;;;;;;;;1.20;85.30;;;;;;5042323;28;19952;-79
2021/12/21 12:53:13;;;;;;;;;;;1.10;85.50;;;;;;5015958;28;19909;-78
2021/12/21 12:55:44;;;;;;;;;;;1.10;85.70;;;;;;5044121;28;19913;-78
2021/12/21 12:58:20;;;;;;;;;;;1.10;85.60;;;;;;5027105;28;20351;-79
2021/12/21 13:00:52;;;;;;;;;;;1.00;85.40;;;;;;5013985;28;19969;-80
2021/12/21 13:03:18;;;;;;;;;;;1.10;85.70;;;;;;5021530;28;19913;-82
2021/12/21 13:05:52;;;;;;;;;;;1.10;85.10;;;;;;5029939;28;19943;-80
2021/12/21 13:08:19;;;;;;;;;;;1.10;85.30;;;;;;5042184;28;20328;-80
2021/12/21 13:10:46;;;;;;;;;;;1.00;85.40;;;;;;5014388;28;20391;-80
2021/12/21 13:13:12;;;;;;;;;;;1.00;85.50;;;;;;5033017;28;19956;-80
2021/12/21 13:15:43;;;;;;;;;;;1.00;85.30;;;;;;5016936;28;19940;-79
2021/12/21 13:18:13;;;;;;;;;;;1.00;85.50;;;;;;5040466;28;19999;-79
2021/12/21 13:20:38;;;;;;;;;;;0.90;85.40;;;;;;5032543;28;19963;-80
2021/12/21 13:23:12;;;;;;;;;;;1.00;85.60;;;;;;5028420;28;20379;-78
2021/12/21 13:25:37;;;;;;;;;;;1.00;85.30;;;;;;5013190;28;20383;-79
2021/12/21 13:28:13;;;;;;;;;;;0.80;85.30;;;;;;5013463;28;19921;-79
2021/12/21 13:30:46;;;;;;;;;;;0.80;85.60;;;;;;5012634;28;19916;-80
2021/12/21 13:33:17;;;;;;;;;;;0.80;85.10;;;;;;5025936;28;20027;-79
2021/12/21 13:35:43;;;;;;;;;;;0.50;85.40;;;;;;5029630;28;20322;-80
2021/12/21 13:38:15;;;;;;;;;;;0.50;85.90;;;;;;5032740;28;19964;-80
2021/12/21 13:40:41;;;;;;;;;;;0.60;86.10;;;;;;5022118;28;19978;-79
2021/12/21 13:43:10;;;;;;;;;;;0.50;85.90;;;;;;5014629;28;19916;-79
2021/12/21 13:45:36;;;;;;;;;;;0.40;86.00;;;;;;5033101;28;19917;-79
2021/12/21 13:48:02;;;;;;;;;;;0.40;86.20;;;;;;5032814;28;19948;-80
2021/12/21 13:50:27;;;;;;;;;;;0.50;86.20;;;;;;5028642;28;20623;-80
2021/12/21 13:52:57;;;;;;;;;;;0.50;85.80;;;;;;5024457;28;19932;-81
2021/12/21 13:55:24;;;;;;;;;;;0.50;85.80;;;;;;5029586;28;19913;-80
2021/12/21 13:57:51;;;;;;;;;;;0.50;86.00;;;;;;5027683;28;20010;-81
2021/12/21 14:00:17;;;;;;;;;;;0.60;85.80;;;;;;5023220;28;20201;-80
2021/12/21 14:02:50;;;;;;;;;;;0.60;85.60;;;;;;5009529;28;19913;-80
2021/12/21 14:05:17;;;;;;;;;;;0.70;85.40;;;;;;5015093;28;20283;-80
2021/12/21 14:07:44;;;;;;;;;;;0.70;85.30;;;;;;5011088;28;19924;-79
2021/12/21 14:10:12;;;;;;;;;;;0.70;85.00;;;;;;5030247;28;19923;-80
2021/12/21 14:12:38;;;;;;;;;;;0.70;85.30;;;;;;5032036;28;19957;-80
2021/12/21 14:15:04;;;;;;;;;;;0.70;85.00;;;;;;5038300;28;19928;-80
2021/12/21 14:17:29;;;;;;;;;;;0.70;85.20;;;;;;5039166;28;19920;-80
2021/12/21 14:19:56;;;;;;;;;;;0.60;84.90;;;;;;5014315;28;19926;-80
2021/12/21 14:22:22;;;;;;;;;;;0.50;85.30;;;;;;5032887;28;19913;-80
2021/12/21 14:24:49;;;;;;;;;;;0.50;85.40;;;;;;5013992;28;19920;-80
2021/12/21 14:27:15;;;;;;;;;;;0.40;85.70;;;;;;5031166;28;19913;-79
2021/12/21 14:29:42;;;;;;;;;;;0.50;85.90;;;;;;5031699;28;19924;-80
2021/12/21 14:34:36;;;;;;;;;;;0.50;85.80;;;;;;5037005;28;19928;-81
2021/12/21 14:37:07;;;;;;;;;;;0.40;85.60;;;;;;5020052;28;19913;-84
2021/12/21 14:39:32;;;;;;;;;;;0.30;86.20;;;;;;5035695;28;20395;-82
2021/12/21 14:41:59;;;;;;;;;;;0.30;86.10;;;;;;5043363;28;19913;-80
2021/12/21 14:44:26;;;;;;;;;;;0.50;86.20;;;;;;5046182;28;19929;-78
2021/12/21 14:46:51;;;;;;;;;;;0.40;85.80;;;;;;5021357;28;20553;-81
2021/12/21 14:49:22;;;;;;;;;;;0.00;85.90;;;;;;5019674;28;20000;-82
2021/12/21 14:51:50;;;;;;;;;;;-3276.60;86.80;;;;;;5035928;28;19916;-80